createdAt,value
2023-03-13T00:00:15.261Z,60.60
2023-03-13T00:01:39.363Z,46.30
2023-03-13T00:03:00.361Z,54.70
2023-03-13T00:04:21.139Z,49.53
2023-03-13T00:05:42.186Z,59.10
2023-03-13T00:07:02.665Z,47.50
2023-03-13T00:08:23.896Z,68.57
2023-03-13T00:09:44.560Z,55.60
2023-03-13T00:11:06.273Z,51.97
2023-03-13T00:12:26.894Z,44.17
2023-03-13T00:13:47.914Z,50.35
2023-03-13T00:15:09.523Z,48.85
2023-03-13T00:16:30.949Z,50.90
2023-03-13T00:17:52.884Z,49.60
2023-03-13T00:19:14.896Z,36.85
2023-03-13T00:20:35.554Z,40.60
2023-03-13T00:21:56.387Z,48.67
2023-03-13T00:23:17.050Z,39.58
2023-03-13T00:24:37.834Z,38.57
2023-03-13T00:25:59.067Z,59.53
2023-03-13T00:27:19.527Z,46.88
2023-03-13T00:28:42.034Z,34.63
2023-03-13T00:30:02.444Z,47.05
2023-03-13T00:31:24.449Z,57.05
2023-03-13T00:32:46.594Z,39.42
2023-03-13T00:34:09.432Z,43.72
2023-03-13T00:35:30.184Z,35.05
2023-03-13T00:36:50.676Z,32.67
2023-03-13T00:38:11.446Z,32.17
2023-03-13T00:39:32.227Z,40.33
2023-03-13T00:40:59.398Z,33.63
2023-03-13T00:42:20.044Z,34.53
2023-03-13T00:43:42.025Z,31.88
2023-03-13T00:45:02.713Z,30.90
2023-03-13T00:46:24.608Z,40.53
2023-03-13T00:47:44.998Z,39.97
2023-03-13T00:49:05.638Z,38.05
2023-03-13T00:50:27.775Z,38.42
2023-03-13T00:51:48.504Z,33.10
2023-03-13T00:53:09.234Z,30.38
2023-03-13T00:54:30.052Z,32.80
2023-03-13T00:55:55.020Z,35.55
2023-03-13T00:57:15.364Z,30.85
2023-03-13T00:58:37.429Z,28.52
2023-03-13T00:59:57.989Z,42.25
2023-03-13T01:01:20.358Z,33.20
2023-03-13T01:02:43.948Z,46.33
2023-03-13T01:04:06.659Z,34.33
2023-03-13T01:05:28.434Z,34.65
2023-03-13T01:06:48.987Z,33.10
2023-03-13T01:08:09.811Z,35.30
2023-03-13T01:09:30.587Z,33.20
2023-03-13T01:10:51.293Z,39.40
2023-03-13T01:12:12.947Z,38.17
2023-03-13T01:13:34.135Z,39.75
2023-03-13T01:14:54.516Z,39.33
2023-03-13T01:16:16.547Z,38.28
2023-03-13T01:17:37.269Z,37.33
2023-03-13T01:19:00.825Z,32.28
2023-03-13T01:20:21.482Z,33.38
2023-03-13T01:21:44.972Z,34.67
2023-03-13T01:23:05.701Z,47.90
2023-03-13T01:24:26.386Z,39.07
2023-03-13T01:25:47.135Z,41.53
2023-03-13T01:27:07.957Z,35.55
2023-03-13T01:28:28.705Z,41.83
2023-03-13T01:29:49.330Z,47.07
2023-03-13T01:31:11.800Z,34.33
2023-03-13T01:32:33.602Z,35.90
2023-03-13T01:33:55.718Z,37.22
2023-03-13T01:35:16.726Z,43.10
2023-03-13T01:36:38.178Z,49.30
2023-03-13T01:38:00.189Z,47.60
2023-03-13T01:39:20.802Z,44.55
2023-03-13T01:40:42.511Z,39.03
2023-03-13T01:42:03.822Z,38.88
2023-03-13T01:43:27.675Z,41.83
2023-03-13T01:44:50.422Z,52.63
2023-03-13T01:46:13.131Z,52.33
2023-03-13T01:47:33.815Z,36.75
2023-03-13T01:48:58.088Z,40.10
2023-03-13T01:50:19.080Z,36.20
2023-03-13T01:51:42.315Z,45.30
2023-03-13T01:53:04.229Z,39.25
2023-03-13T01:54:26.837Z,35.90
2023-03-13T01:55:47.443Z,46.58
2023-03-13T01:57:12.175Z,45.90
2023-03-13T01:58:33.040Z,41.17
2023-03-13T01:59:56.953Z,52.33
2023-03-13T02:01:17.984Z,55.22
2023-03-13T02:02:42.584Z,45.30
2023-03-13T02:04:03.317Z,32.08
2023-03-13T02:05:26.444Z,39.55
2023-03-13T02:06:49.318Z,38.75
2023-03-13T02:08:14.176Z,34.83
2023-03-13T02:09:35.499Z,47.55
2023-03-13T02:11:04.061Z,31.35
2023-03-13T02:12:29.391Z,42.20
2023-03-13T02:13:50.828Z,37.50
2023-03-13T02:15:14.080Z,35.63
2023-03-13T02:16:35.276Z,32.72
2023-03-13T02:17:56.730Z,35.28
2023-03-13T02:19:20.001Z,28.55
2023-03-13T02:20:40.847Z,33.50
2023-03-13T02:22:07.180Z,39.47
2023-03-13T02:23:32.853Z,32.42
2023-03-13T02:24:58.344Z,33.75
2023-03-13T02:26:20.197Z,36.90
2023-03-13T02:27:41.421Z,33.75
2023-03-13T02:29:01.810Z,31.35
2023-03-13T02:30:22.771Z,37.75
2023-03-13T02:31:43.782Z,41.65
2023-03-13T02:33:04.888Z,32.70
2023-03-13T02:34:29.043Z,35.85
2023-03-13T02:35:50.117Z,40.90
2023-03-13T02:37:11.979Z,39.65
2023-03-13T02:38:37.147Z,32.00
2023-03-13T02:40:00.420Z,40.45
2023-03-13T02:41:23.503Z,32.80
2023-03-13T02:42:45.273Z,36.92
2023-03-13T02:44:06.193Z,29.35
2023-03-13T02:45:26.972Z,32.50
2023-03-13T02:46:49.092Z,29.67
2023-03-13T02:48:09.863Z,30.42
2023-03-13T02:49:31.005Z,27.67
2023-03-13T02:50:51.965Z,27.85
2023-03-13T02:52:15.025Z,26.63
2023-03-13T02:53:36.003Z,29.77
2023-03-13T02:55:00.104Z,29.60
2023-03-13T02:56:24.407Z,26.95
2023-03-13T02:57:45.016Z,24.75
2023-03-13T02:59:05.818Z,34.75
2023-03-13T03:00:26.507Z,26.70
2023-03-13T03:01:47.297Z,27.30
2023-03-13T03:03:07.751Z,24.63
2023-03-13T03:04:28.240Z,23.80
2023-03-13T03:05:48.724Z,20.88
2023-03-13T03:07:09.491Z,26.30
2023-03-13T03:08:30.047Z,25.35
2023-03-13T03:09:50.719Z,23.50
2023-03-13T03:11:11.653Z,15.60
2023-03-13T03:12:33.729Z,20.52
2023-03-13T03:13:54.904Z,18.88
2023-03-13T03:15:15.718Z,17.77
2023-03-13T03:16:36.172Z,18.27
2023-03-13T03:17:56.799Z,16.55
2023-03-13T03:19:17.560Z,24.27
2023-03-13T03:20:38.236Z,19.17
2023-03-13T03:21:59.098Z,14.18
2023-03-13T03:23:19.662Z,17.08
2023-03-13T03:24:40.492Z,26.60
2023-03-13T03:26:01.271Z,23.75
2023-03-13T03:27:21.749Z,18.45
2023-03-13T03:28:43.839Z,21.98
2023-03-13T03:30:05.196Z,22.33
2023-03-13T03:32:46.361Z,20.67
2023-03-13T03:34:07.041Z,19.48
2023-03-13T03:35:27.747Z,22.33
2023-03-13T03:36:48.297Z,20.70
2023-03-13T03:38:09.064Z,19.13
2023-03-13T03:39:29.807Z,21.63
2023-03-13T03:40:50.665Z,22.95
2023-03-13T03:42:11.279Z,19.38
2023-03-13T03:43:31.689Z,20.17
2023-03-13T03:44:53.790Z,19.88
2023-03-13T03:46:15.083Z,18.70
2023-03-13T03:47:35.885Z,19.70
2023-03-13T03:48:56.577Z,22.30
2023-03-13T03:50:17.420Z,22.58
2023-03-13T03:51:37.956Z,21.75
2023-03-13T03:52:58.850Z,15.52
2023-03-13T03:54:19.425Z,21.93
2023-03-13T03:55:40.112Z,20.77
2023-03-13T03:57:00.808Z,24.30
2023-03-13T03:58:21.664Z,32.53
2023-03-13T03:59:42.327Z,24.27
2023-03-13T04:01:07.693Z,27.42
2023-03-13T04:02:28.230Z,28.60
2023-03-13T04:03:48.786Z,29.65
2023-03-13T04:05:09.704Z,19.92
2023-03-13T04:06:30.774Z,22.13
2023-03-13T04:07:51.519Z,22.33
2023-03-13T04:09:12.228Z,23.40
2023-03-13T04:10:32.737Z,20.27
2023-03-13T04:11:53.407Z,25.27
2023-03-13T04:13:14.165Z,23.73
2023-03-13T04:14:34.556Z,21.27
2023-03-13T04:15:55.421Z,19.83
2023-03-13T04:17:17.032Z,22.75
2023-03-13T04:18:37.922Z,23.27
2023-03-13T04:19:58.714Z,26.95
2023-03-13T04:21:19.633Z,22.77
2023-03-13T04:22:40.419Z,25.45
2023-03-13T04:24:00.894Z,18.70
2023-03-13T04:25:21.718Z,22.33
2023-03-13T04:26:42.437Z,25.25
2023-03-13T04:28:03.156Z,21.65
2023-03-13T04:29:23.847Z,19.63
2023-03-13T04:30:44.549Z,24.17
2023-03-13T04:32:05.819Z,22.88
2023-03-13T04:33:28.193Z,21.05
2023-03-13T04:34:48.783Z,26.83
2023-03-13T04:36:10.013Z,19.00
2023-03-13T04:37:30.391Z,25.33
2023-03-13T04:38:51.206Z,26.33
2023-03-13T04:40:12.644Z,20.83
2023-03-13T04:41:33.367Z,23.75
2023-03-13T04:42:53.913Z,30.55
2023-03-13T04:44:14.670Z,28.27
2023-03-13T04:45:35.070Z,21.50
2023-03-13T04:46:55.783Z,22.02
2023-03-13T04:48:16.558Z,21.55
2023-03-13T04:49:38.543Z,22.58
2023-03-13T04:50:59.245Z,23.38
2023-03-13T04:52:19.929Z,29.65
2023-03-13T04:53:40.580Z,21.33
2023-03-13T04:55:01.312Z,21.13
2023-03-13T05:18:26.176Z,30.15
2023-03-13T05:19:46.690Z,24.25
2023-03-13T05:21:07.978Z,23.25
2023-03-13T05:22:28.363Z,22.90
2023-03-13T05:23:49.079Z,23.52
2023-03-13T05:25:09.780Z,23.57
2023-03-13T05:26:30.388Z,18.30
2023-03-13T05:27:51.182Z,22.83
2023-03-13T05:29:11.788Z,31.85
2023-03-13T05:30:32.495Z,26.23
2023-03-13T05:31:53.131Z,30.53
2023-03-13T05:33:13.755Z,23.25
2023-03-13T05:34:35.485Z,22.70
2023-03-13T05:35:56.140Z,22.88
2023-03-13T05:37:16.728Z,15.18
2023-03-13T05:38:38.072Z,23.48
2023-03-13T05:39:58.722Z,26.17
2023-03-13T05:41:19.478Z,25.05
2023-03-13T05:42:41.648Z,23.83
2023-03-13T05:44:02.395Z,35.78
2023-03-13T05:45:24.238Z,22.92
2023-03-13T05:46:44.949Z,21.15
2023-03-13T05:48:06.702Z,24.42
2023-03-13T05:49:27.158Z,26.00
2023-03-13T05:50:49.076Z,22.60
2023-03-13T05:52:09.727Z,27.40
2023-03-13T05:53:30.424Z,30.95
2023-03-13T05:54:51.062Z,18.35
2023-03-13T05:56:11.758Z,24.83
2023-03-13T05:57:32.069Z,20.20
2023-03-13T05:58:52.473Z,17.00
2023-03-13T06:00:14.592Z,24.75
2023-03-13T06:01:35.397Z,24.60
2023-03-13T06:02:56.159Z,20.85
2023-03-13T06:04:16.978Z,24.90
2023-03-13T06:05:37.778Z,23.20
2023-03-13T06:06:59.502Z,22.92
2023-03-13T06:08:21.806Z,21.48
2023-03-13T06:09:42.832Z,26.75
2023-03-13T06:11:03.553Z,18.30
2023-03-13T06:12:24.467Z,23.83
2023-03-13T06:13:45.119Z,19.67
2023-03-13T06:15:06.952Z,19.63
2023-03-13T06:16:27.696Z,18.30
2023-03-13T06:17:48.589Z,22.30
2023-03-13T06:19:09.176Z,15.82
2023-03-13T06:20:29.813Z,18.50
2023-03-13T06:21:50.637Z,24.93
2023-03-13T06:23:12.825Z,23.10
2023-03-13T06:24:33.776Z,21.60
2023-03-13T06:25:54.643Z,22.50
2023-03-13T06:27:15.655Z,24.48
2023-03-13T06:28:36.094Z,24.85
2023-03-13T06:29:56.812Z,17.02
2023-03-13T06:31:18.125Z,25.17
2023-03-13T06:32:39.255Z,20.10
2023-03-13T06:33:59.733Z,24.85
2023-03-13T06:35:20.370Z,16.58
2023-03-13T06:36:41.296Z,23.27
2023-03-13T06:38:01.977Z,25.00
2023-03-13T06:39:24.297Z,22.15
2023-03-13T06:40:47.553Z,26.85
2023-03-13T06:42:08.682Z,22.85
2023-03-13T06:43:29.419Z,23.73
2023-03-13T06:44:50.088Z,27.75
2023-03-13T06:46:16.603Z,28.30
2023-03-13T06:47:37.132Z,26.45
2023-03-13T06:48:58.404Z,27.08
2023-03-13T06:50:19.064Z,31.40
2023-03-13T06:51:39.655Z,23.55
2023-03-13T06:53:00.071Z,27.73
2023-03-13T06:54:20.721Z,26.52
2023-03-13T06:55:43.048Z,24.33
2023-03-13T06:57:04.058Z,29.85
2023-03-13T06:58:32.046Z,23.17
2023-03-13T06:59:52.828Z,27.55
2023-03-13T07:01:15.412Z,23.92
2023-03-13T07:02:36.474Z,28.50
2023-03-13T07:03:57.251Z,28.33
2023-03-13T07:05:18.148Z,25.38
2023-03-13T07:06:38.750Z,25.45
2023-03-13T07:07:59.751Z,27.42
2023-03-13T07:09:20.406Z,21.63
2023-03-13T07:10:44.235Z,27.85
2023-03-13T07:12:05.298Z,24.63
2023-03-13T07:13:26.295Z,24.10
2023-03-13T07:14:47.120Z,20.40
2023-03-13T07:16:10.083Z,20.80
2023-03-13T07:17:30.715Z,24.48
2023-03-13T07:18:51.458Z,26.60
2023-03-13T07:20:14.802Z,27.05
2023-03-13T07:21:36.563Z,19.52
2023-03-13T07:22:57.424Z,29.05
2023-03-13T07:24:17.892Z,25.83
2023-03-13T07:25:39.926Z,23.67
2023-03-13T07:27:07.581Z,24.45
2023-03-13T07:28:29.862Z,25.60
2023-03-13T07:29:50.510Z,24.38
2023-03-13T07:31:13.598Z,21.85
2023-03-13T07:32:34.403Z,26.17
2023-03-13T07:33:55.053Z,22.85
2023-03-13T07:35:15.862Z,26.67
2023-03-13T07:36:36.377Z,20.58
2023-03-13T07:37:56.716Z,21.42
2023-03-13T07:39:17.244Z,23.05
2023-03-13T07:40:38.169Z,21.83
2023-03-13T07:41:59.060Z,21.65
2023-03-13T07:43:21.631Z,18.20
2023-03-13T07:44:42.103Z,17.65
2023-03-13T07:46:04.424Z,24.73
2023-03-13T07:47:25.243Z,21.63
2023-03-13T07:48:46.690Z,26.27
2023-03-13T07:50:08.411Z,23.10
2023-03-13T07:51:42.506Z,19.27
2023-03-13T07:53:05.339Z,19.90
2023-03-13T07:54:27.298Z,22.33
2023-03-13T07:55:58.197Z,21.00
2023-03-13T07:57:18.868Z,17.02
2023-03-13T07:58:41.904Z,18.07
2023-03-13T08:00:02.576Z,15.18
2023-03-13T08:01:27.382Z,20.83
2023-03-13T08:02:49.994Z,15.63
2023-03-13T08:04:13.241Z,21.00
2023-03-13T08:05:34.854Z,15.15
2023-03-13T08:06:55.359Z,15.30
2023-03-13T08:08:16.085Z,12.60
2023-03-13T08:09:36.785Z,14.65
2023-03-13T08:11:02.273Z,15.33
2023-03-13T08:12:22.739Z,14.10
2023-03-13T08:13:45.427Z,13.35
2023-03-13T08:15:07.227Z,17.98
2023-03-13T08:16:29.232Z,14.43
2023-03-13T08:17:50.186Z,13.48
2023-03-13T08:19:11.045Z,15.15
2023-03-13T08:20:31.936Z,11.30
2023-03-13T08:21:52.748Z,21.05
2023-03-13T08:23:13.273Z,15.93
2023-03-13T08:24:33.997Z,10.50
2023-03-13T08:25:54.465Z,16.33
2023-03-13T08:27:15.506Z,16.70
2023-03-13T08:28:37.325Z,18.40
2023-03-13T08:29:59.455Z,18.40
2023-03-13T08:31:21.667Z,16.52
2023-03-13T08:32:42.946Z,18.42
2023-03-13T08:34:03.937Z,16.33
2023-03-13T08:35:24.342Z,15.20
2023-03-13T08:36:45.261Z,17.23
2023-03-13T08:38:05.994Z,14.18
2023-03-13T08:39:27.176Z,12.20
2023-03-13T08:40:47.660Z,15.90
2023-03-13T08:42:09.328Z,13.02
2023-03-13T08:43:30.029Z,13.07
2023-03-13T08:44:50.813Z,15.48
2023-03-13T08:46:13.198Z,14.17
2023-03-13T08:47:33.903Z,13.00
2023-03-13T08:48:55.134Z,15.27
2023-03-13T08:50:16.225Z,13.02
2023-03-13T08:51:37.564Z,12.63
2023-03-13T08:52:58.454Z,16.35
2023-03-13T08:54:19.254Z,17.08
2023-03-13T08:55:39.669Z,12.50
2023-03-13T08:57:00.430Z,16.30
2023-03-13T08:58:21.337Z,15.77
2023-03-13T08:59:41.938Z,11.27
2023-03-13T09:01:03.452Z,22.35
2023-03-13T09:02:25.521Z,19.40
2023-03-13T09:03:46.155Z,22.48
2023-03-13T09:05:07.711Z,14.45
2023-03-13T09:06:28.437Z,18.85
2023-03-13T09:07:49.055Z,15.50
2023-03-13T09:09:10.423Z,17.35
2023-03-13T09:10:33.027Z,18.38
2023-03-13T09:11:53.569Z,15.65
2023-03-13T09:13:14.196Z,17.27
2023-03-13T09:14:36.703Z,24.55
2023-03-13T09:15:58.201Z,16.02
2023-03-13T09:17:18.746Z,17.48
2023-03-13T09:18:41.136Z,21.85
2023-03-13T09:20:02.006Z,19.60
2023-03-13T09:21:25.977Z,13.35
2023-03-13T09:22:46.801Z,23.17
2023-03-13T09:24:08.011Z,15.48
2023-03-13T09:27:00.687Z,14.40
2023-03-13T09:28:22.095Z,13.80
2023-03-13T09:29:42.945Z,19.95
2023-03-13T09:31:07.542Z,11.10
2023-03-13T09:32:28.404Z,11.13
2023-03-13T09:33:51.066Z,15.55
2023-03-13T09:35:11.625Z,16.25
2023-03-13T09:36:32.956Z,17.55
2023-03-13T09:37:53.702Z,15.73
2023-03-13T09:39:14.337Z,12.40
2023-03-13T09:40:39.128Z,10.50
2023-03-13T09:42:06.764Z,11.15
2023-03-13T09:43:38.108Z,8.57
2023-03-13T09:45:01.715Z,14.90
2023-03-13T09:46:25.569Z,10.52
2023-03-13T09:47:49.107Z,11.68
2023-03-13T09:49:18.335Z,12.82
2023-03-13T09:50:44.583Z,12.52
2023-03-13T09:52:13.996Z,9.82
2023-03-13T09:53:40.107Z,12.27
2023-03-13T09:55:04.108Z,10.68
2023-03-13T09:56:25.797Z,11.73
2023-03-13T09:57:50.846Z,14.43
2023-03-13T09:59:16.877Z,11.75
2023-03-13T10:00:39.242Z,9.48
2023-03-13T10:02:01.062Z,10.60
2023-03-13T10:03:25.624Z,10.43
2023-03-13T10:04:51.379Z,9.35
2023-03-13T10:06:16.078Z,7.93
2023-03-13T10:07:36.789Z,18.52
2023-03-13T10:08:58.416Z,9.18
2023-03-13T10:10:21.857Z,14.32
2023-03-13T10:11:46.469Z,15.52
2023-03-13T10:13:15.406Z,5.55
2023-03-13T10:14:42.858Z,10.27
2023-03-13T10:16:06.663Z,8.75
2023-03-13T10:17:32.702Z,12.13
2023-03-13T10:18:55.794Z,9.65
2023-03-13T10:20:23.790Z,11.75
2023-03-13T10:21:47.261Z,7.82
2023-03-13T10:23:14.855Z,9.27
2023-03-13T10:24:39.650Z,9.90
2023-03-13T10:26:00.173Z,12.65
2023-03-13T10:27:21.008Z,10.10
2023-03-13T10:28:41.754Z,12.70
2023-03-13T10:30:02.817Z,17.00
2023-03-13T10:31:29.240Z,13.82
2023-03-13T10:32:50.131Z,14.25
2023-03-13T10:34:11.788Z,19.03
2023-03-13T10:35:35.309Z,13.40
2023-03-13T10:36:58.380Z,9.93
2023-03-13T10:38:20.781Z,19.63
2023-03-13T10:39:41.398Z,15.40
2023-03-13T10:41:04.333Z,13.73
2023-03-13T10:42:28.387Z,14.05
2023-03-13T10:43:52.694Z,12.50
2023-03-13T10:45:17.034Z,18.65
2023-03-13T10:46:41.959Z,16.63
2023-03-13T10:48:13.640Z,14.52
2023-03-13T10:49:49.317Z,17.02
2023-03-13T10:51:24.460Z,12.80
2023-03-13T10:52:58.280Z,15.90
2023-03-13T10:54:26.499Z,19.30
2023-03-13T10:55:51.285Z,14.60
2023-03-13T10:57:29.210Z,17.55
2023-03-13T10:59:00.973Z,20.65
2023-03-13T11:00:31.438Z,23.25
2023-03-13T11:01:59.853Z,26.02
2023-03-13T11:03:28.513Z,20.10
2023-03-13T11:04:55.992Z,14.55
2023-03-13T11:06:32.842Z,16.10
2023-03-13T11:07:56.783Z,28.35
2023-03-13T11:09:26.052Z,18.70
2023-03-13T11:11:00.282Z,26.83
2023-03-13T11:12:26.071Z,21.63
2023-03-13T11:13:56.690Z,18.25
2023-03-13T11:15:29.773Z,20.95
2023-03-13T11:17:02.948Z,20.05
2023-03-13T11:18:33.812Z,21.10
2023-03-13T11:20:02.682Z,29.90
2023-03-13T11:21:42.161Z,21.13
2023-03-13T11:23:19.062Z,38.38
2023-03-13T11:24:45.904Z,39.70
2023-03-13T11:26:14.468Z,38.22
2023-03-13T11:27:41.896Z,49.53
2023-03-13T11:29:07.932Z,32.13
2023-03-13T11:30:45.462Z,31.15
2023-03-13T11:32:16.898Z,36.97
2023-03-13T11:33:41.426Z,28.48
2023-03-13T11:35:07.198Z,29.67
2023-03-13T11:36:36.495Z,20.98
2023-03-13T11:37:58.696Z,33.92
2023-03-13T11:39:57.831Z,46.50
2023-03-13T11:41:32.199Z,25.42
2023-03-13T11:43:25.167Z,32.13
2023-03-13T11:44:54.688Z,22.45
2023-03-13T11:46:29.533Z,26.27
2023-03-13T11:47:57.219Z,21.27
2023-03-13T11:49:43.741Z,18.98
2023-03-13T11:51:09.337Z,37.55
2023-03-13T11:52:40.916Z,30.67
2023-03-13T11:54:24.088Z,31.17
2023-03-13T11:55:52.731Z,31.20
2023-03-13T11:57:15.459Z,34.78
2023-03-13T11:59:06.534Z,23.30
2023-03-13T12:00:33.171Z,32.65
2023-03-13T12:01:56.096Z,35.45
2023-03-13T12:03:18.953Z,28.30
2023-03-13T12:04:42.327Z,33.72
2023-03-13T12:06:04.315Z,41.05
2023-03-13T12:07:28.455Z,28.70
2023-03-13T12:08:56.234Z,32.88
2023-03-13T12:10:21.175Z,31.38
2023-03-13T12:11:46.111Z,32.80
2023-03-13T12:13:12.950Z,25.83
2023-03-13T12:14:39.446Z,26.77
2023-03-13T12:16:02.629Z,35.08
2023-03-13T12:17:33.542Z,36.20
2023-03-13T12:18:54.932Z,31.35
2023-03-13T12:20:25.466Z,29.83
2023-03-13T12:22:02.333Z,35.08
2023-03-13T12:23:29.012Z,40.42
2023-03-13T12:24:53.738Z,36.17
2023-03-13T12:26:17.944Z,30.77
2023-03-13T12:27:42.609Z,36.67
2023-03-13T12:29:07.610Z,30.33
2023-03-13T12:30:35.623Z,34.85
2023-03-13T12:31:59.974Z,35.80
2023-03-13T12:33:24.750Z,31.40
2023-03-13T12:34:52.266Z,37.00
2023-03-13T12:36:17.245Z,49.00
2023-03-13T12:37:44.442Z,37.85
2023-03-13T12:39:14.988Z,33.92
2023-03-13T12:40:39.142Z,32.63
2023-03-13T12:42:19.134Z,30.35
2023-03-13T12:43:40.784Z,38.65
2023-03-13T12:45:01.729Z,35.20
2023-03-13T12:46:37.062Z,39.13
2023-03-13T12:48:20.018Z,33.33
2023-03-13T12:50:07.904Z,35.15
2023-03-13T12:51:43.274Z,39.38
2023-03-13T12:53:25.203Z,30.70
2023-03-13T12:55:27.315Z,41.45
2023-03-13T12:57:05.860Z,35.72
2023-03-13T12:58:40.140Z,28.60
2023-03-13T13:00:01.806Z,37.97
2023-03-13T13:01:33.316Z,35.28
2023-03-13T13:03:06.745Z,29.85
2023-03-13T13:04:28.448Z,44.10
2023-03-13T13:06:02.795Z,35.75
2023-03-13T13:07:25.536Z,54.75
2023-03-13T13:08:49.743Z,52.42
2023-03-13T13:10:21.349Z,42.20
2023-03-13T13:11:49.603Z,30.30
2023-03-13T13:13:30.068Z,33.00
2023-03-13T13:14:59.145Z,62.38
2023-03-13T13:16:22.329Z,46.92
2023-03-13T13:18:14.258Z,36.47
2023-03-13T13:19:45.078Z,42.45
2023-03-13T13:21:24.179Z,35.92
2023-03-13T13:22:52.616Z,31.65
2023-03-13T13:24:41.303Z,26.33
2023-03-13T13:26:47.781Z,41.90
2023-03-13T13:28:22.900Z,59.90
2023-03-13T13:29:53.852Z,86.50
2023-03-13T13:31:56.127Z,59.08
2023-03-13T13:33:37.901Z,39.88
2023-03-13T13:35:02.792Z,32.90
2023-03-13T13:36:29.080Z,36.92
2023-03-13T13:37:50.288Z,42.55
2023-03-13T13:39:35.580Z,38.78
2023-03-13T13:41:01.180Z,33.00
2023-03-13T13:42:48.625Z,35.25
2023-03-13T13:44:25.808Z,80.78
2023-03-13T13:45:59.467Z,41.25
2023-03-13T13:47:26.267Z,49.95
2023-03-13T13:48:47.289Z,65.32
2023-03-13T13:50:17.536Z,34.13
2023-03-13T13:51:38.776Z,44.67
2023-03-13T13:53:29.707Z,37.42
2023-03-13T13:54:56.334Z,49.92
2023-03-13T13:56:45.393Z,33.47
2023-03-13T13:58:12.070Z,49.00
2023-03-13T13:59:42.300Z,59.08
2023-03-13T14:01:06.167Z,56.35
2023-03-13T14:02:32.136Z,52.28
2023-03-13T14:04:13.540Z,57.80
2023-03-13T14:05:34.392Z,49.13
2023-03-13T14:06:57.437Z,35.00
2023-03-13T14:08:21.359Z,37.47
2023-03-13T14:09:54.408Z,41.88
2023-03-13T14:11:24.836Z,47.30
2023-03-13T14:12:47.695Z,63.78
2023-03-13T14:14:14.586Z,65.93
2023-03-13T14:15:35.327Z,50.85
2023-03-13T14:17:02.220Z,57.90
2023-03-13T14:18:25.992Z,38.13
2023-03-13T14:19:49.481Z,59.80
2023-03-13T14:21:10.348Z,60.85
2023-03-13T14:22:45.293Z,48.08
2023-03-13T14:24:13.552Z,50.15
2023-03-13T14:25:43.499Z,70.38
2023-03-13T14:27:14.925Z,45.00
2023-03-13T14:28:40.546Z,63.67
2023-03-13T14:30:05.699Z,49.50
2023-03-13T14:31:28.878Z,49.40
2023-03-13T14:32:55.782Z,43.63
2023-03-13T14:34:21.215Z,43.10
2023-03-13T14:35:46.223Z,45.33
2023-03-13T14:37:36.674Z,65.93
2023-03-13T14:38:58.694Z,53.20
2023-03-13T14:40:21.965Z,53.78
2023-03-13T14:41:46.222Z,42.63
2023-03-13T14:43:19.091Z,37.63
2023-03-13T14:44:40.602Z,45.60
2023-03-13T14:46:11.684Z,38.97
2023-03-13T14:47:32.540Z,32.42
2023-03-13T14:48:54.652Z,59.30
2023-03-13T14:50:17.891Z,35.67
2023-03-13T14:51:39.842Z,37.03
2023-03-13T14:53:03.485Z,58.58
2023-03-13T14:54:26.567Z,39.53
2023-03-13T14:55:47.989Z,40.47
2023-03-13T14:58:34.379Z,67.32
2023-03-13T14:59:55.410Z,68.63
2023-03-13T15:01:25.300Z,40.90
2023-03-13T15:02:46.254Z,37.50
2023-03-13T15:04:06.945Z,47.88
2023-03-13T15:05:34.802Z,38.92
2023-03-13T15:07:02.377Z,49.60
2023-03-13T15:08:24.413Z,41.92
2023-03-13T15:09:47.462Z,37.88
2023-03-13T15:11:22.490Z,28.20
2023-03-13T15:12:44.864Z,43.95
2023-03-13T15:14:39.255Z,41.47
2023-03-13T15:16:00.709Z,47.20
2023-03-13T15:17:22.940Z,33.58
2023-03-13T15:18:43.629Z,37.05
2023-03-13T15:20:06.951Z,35.17
2023-03-13T15:21:31.366Z,41.47
2023-03-13T15:22:52.224Z,30.15
2023-03-13T15:24:14.625Z,38.93
2023-03-13T15:25:35.090Z,40.20
2023-03-13T15:26:56.831Z,36.33
2023-03-13T15:28:19.392Z,37.88
2023-03-13T15:29:40.201Z,35.83
2023-03-13T15:31:01.864Z,35.72
2023-03-13T15:33:48.933Z,48.35
2023-03-13T15:35:24.035Z,43.00
2023-03-13T15:36:45.678Z,35.67
2023-03-13T15:38:10.260Z,37.05
2023-03-13T15:39:31.019Z,44.90
2023-03-13T15:40:52.373Z,42.25
2023-03-13T15:42:12.894Z,44.40
2023-03-13T15:43:33.607Z,46.77
2023-03-13T15:44:55.358Z,37.97
2023-03-13T15:47:36.736Z,34.50
2023-03-13T15:48:57.462Z,49.55
2023-03-13T15:50:20.161Z,36.63
2023-03-13T15:51:41.103Z,32.47
2023-03-13T15:53:04.124Z,27.73
2023-03-13T15:54:26.715Z,36.70
2023-03-13T15:55:47.410Z,35.33
2023-03-13T15:57:09.074Z,40.65
2023-03-13T15:58:30.384Z,36.88
2023-03-13T15:59:51.531Z,29.60
2023-03-13T16:01:12.629Z,33.05
2023-03-13T16:02:32.844Z,31.92
2023-03-13T16:03:53.630Z,40.20
2023-03-13T16:05:14.618Z,31.85
2023-03-13T16:06:35.246Z,41.08
2023-03-13T16:07:56.055Z,37.40
2023-03-13T16:09:18.013Z,34.22
2023-03-13T16:10:38.792Z,39.95
2023-03-13T16:11:59.631Z,40.35
2023-03-13T16:13:21.333Z,35.50
2023-03-13T16:14:41.945Z,38.00
2023-03-13T16:16:02.419Z,43.90
2023-03-13T16:17:23.196Z,40.65
2023-03-13T16:18:43.776Z,37.33
2023-03-13T16:20:06.864Z,39.25
2023-03-13T16:21:29.315Z,43.00
2023-03-13T16:22:52.293Z,46.97
2023-03-13T16:24:13.774Z,38.25
2023-03-13T16:25:35.732Z,43.05
2023-03-13T16:26:56.130Z,38.47
2023-03-13T16:28:16.907Z,43.00
2023-03-13T16:29:37.446Z,39.57
2023-03-13T16:30:58.212Z,46.28
2023-03-13T16:32:18.723Z,51.17
2023-03-13T16:33:39.677Z,42.72
2023-03-13T16:35:00.258Z,44.80
2023-03-13T16:36:22.341Z,47.60
2023-03-13T16:37:42.972Z,43.92
2023-03-13T16:39:10.962Z,36.03
2023-03-13T16:40:32.806Z,48.63
2023-03-13T16:41:55.156Z,43.15
2023-03-13T16:43:16.048Z,44.67
2023-03-13T16:44:37.005Z,40.22
2023-03-13T16:45:57.849Z,36.60
2023-03-13T16:47:22.051Z,46.15
2023-03-13T16:48:43.333Z,45.75
2023-03-13T16:50:09.927Z,41.80
2023-03-13T16:51:31.442Z,41.53
2023-03-13T16:52:52.757Z,45.15
2023-03-13T16:54:13.848Z,45.97
2023-03-13T16:55:34.528Z,44.58
2023-03-13T16:56:56.794Z,41.47
2023-03-13T16:58:18.033Z,36.13
2023-03-13T16:59:39.098Z,43.58
2023-03-13T17:01:05.765Z,34.90
2023-03-13T17:02:28.760Z,44.33
2023-03-13T17:03:49.720Z,37.97
2023-03-13T17:05:11.455Z,37.65
2023-03-13T17:07:57.303Z,52.25
2023-03-13T17:09:18.456Z,43.58
2023-03-13T17:10:39.465Z,38.85
2023-03-13T17:12:01.471Z,46.53
2023-03-13T17:13:27.724Z,46.20
2023-03-13T17:14:48.933Z,46.38
2023-03-13T17:16:13.140Z,50.22
2023-03-13T17:17:34.025Z,36.17
2023-03-13T17:18:57.651Z,47.58
2023-03-13T17:20:25.704Z,41.33
2023-03-13T17:21:47.485Z,39.97
2023-03-13T17:23:12.962Z,46.22
2023-03-13T17:24:34.370Z,41.92
2023-03-13T17:25:56.383Z,47.30
2023-03-13T17:27:11.416Z,47.88
2023-03-13T17:28:31.726Z,63.90
2023-03-13T17:29:52.788Z,37.45
2023-03-13T17:31:13.433Z,52.35
2023-03-13T17:32:33.963Z,48.65
2023-03-13T17:33:54.673Z,50.97
2023-03-13T17:35:15.647Z,63.70
2023-03-13T17:36:36.557Z,49.65
2023-03-13T17:37:57.354Z,44.30
2023-03-13T17:39:18.072Z,47.53
2023-03-13T17:40:39.062Z,49.35
2023-03-13T17:41:59.780Z,45.47
2023-03-13T17:43:21.832Z,52.97
2023-03-13T17:44:42.617Z,41.60
2023-03-13T17:46:03.184Z,49.67
2023-03-13T17:47:24.356Z,57.85
2023-03-13T17:48:46.063Z,51.08
2023-03-13T17:50:15.647Z,46.75
2023-03-13T17:51:36.728Z,43.85
2023-03-13T17:52:57.515Z,47.92
2023-03-13T17:54:18.377Z,62.38
2023-03-13T17:55:38.934Z,49.40
2023-03-13T17:56:59.632Z,42.83
2023-03-13T17:58:21.787Z,41.05
2023-03-13T17:59:42.947Z,46.88
2023-03-13T18:01:06.276Z,45.35
2023-03-13T18:02:26.711Z,47.33
2023-03-13T18:03:48.237Z,47.38
2023-03-13T18:06:31.756Z,47.67
2023-03-13T18:07:55.352Z,44.58
2023-03-13T18:09:17.128Z,51.30
2023-03-13T18:10:37.754Z,49.70
2023-03-13T18:11:58.471Z,51.70
2023-03-13T18:13:19.065Z,57.72
2023-03-13T18:14:41.033Z,46.75
2023-03-13T18:16:01.772Z,47.22
2023-03-13T18:17:23.782Z,65.05
2023-03-13T18:18:44.601Z,54.08
2023-03-13T18:20:06.865Z,45.40
2023-03-13T18:21:27.832Z,48.92
2023-03-13T18:22:48.534Z,55.72
2023-03-13T18:24:10.060Z,45.80
2023-03-13T18:26:50.702Z,52.10
2023-03-13T18:28:11.966Z,45.67
2023-03-13T18:29:32.677Z,53.35
2023-03-13T18:30:54.581Z,49.17
2023-03-13T18:32:16.480Z,59.65